EZS58KB LSGG-GMMX
Flight info
| Callsign | EZS58KB |
|---|---|
| Flight time | 2h 56m |
| Altitude | 35000 |
| Route | BALSI DCT RETNO DCT TUPOX DCT MTG DCT DIVKO DCT NILDU DCT NENDA DCT BCN M985 VLC N860 BERUM UG850 FES UM372 ABDOR H400 KUDAX |
| Aircraft | A320/M-SDE3FGHIRWY/LB1 |
Departure
| Time | 2026-05-01 08:22 |
|---|---|
| Airport | Geneva International Airport (LSGG) |
Arrival
| Time | 2026-05-01 11:18 |
|---|---|
| Airport | Marrakesh Menara Airport (GMMX) |
| Time | Latitude | Longitude | Altitude | Speed | Heading |
|---|---|---|---|---|---|
| 2026-05-01 07:57 | 46.23106 | 6.10327 | 1393 ft | 0 kts | 270° |
| 2026-05-01 08:15 | 46.23106 | 6.10307 | 1396 ft | 2 kts | 270° |
| 2026-05-01 08:15 | 46.23106 | 6.10277 | 1393 ft | 5 kts | 270° |
| 2026-05-01 08:16 | 46.23105 | 6.10219 | 1393 ft | 5 kts | 262° |
| 2026-05-01 08:16 | 46.23083 | 6.10168 | 1399 ft | 7 kts | 227° |
| 2026-05-01 08:16 | 46.23051 | 6.10121 | 1399 ft | 6 kts | 225° |
| 2026-05-01 08:16 | 46.23022 | 6.10078 | 1403 ft | 6 kts | 225° |
| 2026-05-01 08:17 | 46.22996 | 6.10040 | 1396 ft | 4 kts | 225° |
| 2026-05-01 08:17 | 46.22961 | 6.09989 | 1399 ft | 12 kts | 225° |
| 2026-05-01 08:17 | 46.22908 | 6.09911 | 1398 ft | 12 kts | 226° |
| 2026-05-01 08:17 | 46.22833 | 6.09801 | 1397 ft | 16 kts | 225° |
| 2026-05-01 08:18 | 46.22760 | 6.09696 | 1401 ft | 14 kts | 225° |
| 2026-05-01 08:18 | 46.22643 | 6.09525 | 1400 ft | 10 kts | 225° |
| 2026-05-01 08:19 | 46.22580 | 6.09430 | 1400 ft | 6 kts | 236° |
| 2026-05-01 08:19 | 46.22568 | 6.09401 | 1407 ft | 1 kts | 241° |
| 2026-05-01 08:20 | 46.22566 | 6.09396 | 1407 ft | 4 kts | 241° |
| 2026-05-01 08:20 | 46.22556 | 6.09204 | 1414 ft | 21 kts | 301° |
| 2026-05-01 08:20 | 46.22658 | 6.09206 | 1417 ft | 16 kts | 46° |
| 2026-05-01 08:20 | 46.22676 | 6.09234 | 1417 ft | 0 kts | 46° |
| 2026-05-01 08:21 | 46.22688 | 6.09253 | 1420 ft | 21 kts | 46° |
| 2026-05-01 08:21 | 46.22970 | 6.09668 | 1413 ft | 91 kts | 45° |
| 2026-05-01 08:21 | 46.23558 | 6.10532 | 1382 ft | 147 kts | 45° |
| 2026-05-01 08:21 | 46.24348 | 6.11718 | 1633 ft | 169 kts | 49° |
| 2026-05-01 08:22 | 46.25141 | 6.12932 | 2319 ft | 167 kts | 46° |
| 2026-05-01 08:22 | 46.25984 | 6.14187 | 2723 ft | 183 kts | 45° |
| 2026-05-01 08:22 | 46.26919 | 6.15550 | 3067 ft | 198 kts | 45° |
| 2026-05-01 08:22 | 46.27914 | 6.16977 | 3423 ft | 215 kts | 45° |
| 2026-05-01 08:23 | 46.29033 | 6.18630 | 3720 ft | 239 kts | 50° |
| 2026-05-01 08:23 | 46.29790 | 6.20862 | 4091 ft | 259 kts | 81° |
| 2026-05-01 08:23 | 46.29614 | 6.23425 | 4773 ft | 266 kts | 113° |
| 2026-05-01 08:23 | 46.28483 | 6.25528 | 5556 ft | 271 kts | 145° |
| 2026-05-01 08:24 | 46.26776 | 6.26712 | 6394 ft | 274 kts | 156° |
| 2026-05-01 08:24 | 46.25013 | 6.27798 | 7194 ft | 277 kts | 156° |
| 2026-05-01 08:24 | 46.23217 | 6.28881 | 7972 ft | 280 kts | 162° |
| 2026-05-01 08:24 | 46.21283 | 6.29235 | 8727 ft | 284 kts | 184° |
| 2026-05-01 08:25 | 46.19377 | 6.28506 | 9489 ft | 288 kts | 207° |
| 2026-05-01 08:25 | 46.17784 | 6.26756 | 10241 ft | 291 kts | 228° |
| 2026-05-01 08:25 | 46.16457 | 6.24444 | 10616 ft | 309 kts | 230° |
| 2026-05-01 08:25 | 46.15073 | 6.22014 | 10959 ft | 324 kts | 230° |
| 2026-05-01 08:26 | 46.13628 | 6.19490 | 11589 ft | 329 kts | 230° |
| 2026-05-01 08:26 | 46.12153 | 6.16926 | 12271 ft | 333 kts | 229° |
| 2026-05-01 08:26 | 46.10665 | 6.14347 | 12927 ft | 337 kts | 229° |
| 2026-05-01 08:26 | 46.09157 | 6.11743 | 13567 ft | 340 kts | 229° |
| 2026-05-01 08:27 | 46.07630 | 6.09112 | 14184 ft | 344 kts | 229° |
| 2026-05-01 08:27 | 46.06083 | 6.06445 | 14747 ft | 348 kts | 229° |
| 2026-05-01 08:27 | 46.04509 | 6.03766 | 15286 ft | 351 kts | 225° |
| 2026-05-01 08:27 | 46.02655 | 6.01469 | 15819 ft | 353 kts | 212° |
| 2026-05-01 08:28 | 46.00476 | 5.99830 | 16372 ft | 354 kts | 198° |
| 2026-05-01 08:28 | 45.98097 | 5.98939 | 16894 ft | 354 kts | 185° |
| 2026-05-01 08:28 | 45.95667 | 5.98720 | 17420 ft | 355 kts | 179° |
| 2026-05-01 08:28 | 45.93186 | 5.98582 | 17984 ft | 358 kts | 179° |
| 2026-05-01 08:29 | 45.90683 | 5.98434 | 18552 ft | 362 kts | 179° |
| 2026-05-01 08:29 | 45.88140 | 5.98275 | 19023 ft | 365 kts | 179° |
| 2026-05-01 08:29 | 45.85609 | 5.98118 | 19504 ft | 367 kts | 179° |
| 2026-05-01 08:29 | 45.83042 | 5.97997 | 19989 ft | 369 kts | 179° |
| 2026-05-01 08:30 | 45.80473 | 5.97905 | 20473 ft | 371 kts | 179° |
| 2026-05-01 08:30 | 45.77892 | 5.97797 | 20962 ft | 373 kts | 179° |
| 2026-05-01 08:30 | 45.75284 | 5.97666 | 21428 ft | 375 kts | 179° |
| 2026-05-01 08:30 | 45.72672 | 5.97521 | 21897 ft | 378 kts | 180° |
| 2026-05-01 08:31 | 45.70043 | 5.97366 | 22345 ft | 380 kts | 180° |
| 2026-05-01 08:31 | 45.67377 | 5.97202 | 22784 ft | 382 kts | 180° |
| 2026-05-01 08:31 | 45.64713 | 5.97036 | 23241 ft | 385 kts | 180° |
| 2026-05-01 08:31 | 45.62058 | 5.96877 | 23682 ft | 387 kts | 180° |
| 2026-05-01 08:32 | 45.59324 | 5.96720 | 24098 ft | 389 kts | 180° |
| 2026-05-01 08:32 | 45.56641 | 5.96570 | 24471 ft | 391 kts | 180° |
| 2026-05-01 08:32 | 45.53922 | 5.96421 | 24831 ft | 393 kts | 180° |
| 2026-05-01 08:32 | 45.51173 | 5.96268 | 25185 ft | 395 kts | 180° |
| 2026-05-01 08:33 | 45.48423 | 5.96092 | 25532 ft | 398 kts | 183° |
| 2026-05-01 08:33 | 45.45677 | 5.95452 | 25877 ft | 401 kts | 191° |
| 2026-05-01 08:33 | 45.42944 | 5.94592 | 26228 ft | 403 kts | 191° |
| 2026-05-01 08:33 | 45.40180 | 5.93722 | 26607 ft | 404 kts | 191° |
| 2026-05-01 08:34 | 45.37453 | 5.92868 | 26952 ft | 406 kts | 191° |
| 2026-05-01 08:34 | 45.34693 | 5.92006 | 27304 ft | 408 kts | 191° |
| 2026-05-01 08:34 | 45.31917 | 5.91138 | 27640 ft | 409 kts | 191° |
| 2026-05-01 08:34 | 45.29119 | 5.90263 | 27983 ft | 411 kts | 191° |
| 2026-05-01 08:35 | 45.26309 | 5.89388 | 28303 ft | 413 kts | 191° |
| 2026-05-01 08:35 | 45.23500 | 5.88518 | 28610 ft | 415 kts | 191° |
| 2026-05-01 08:35 | 45.20685 | 5.87645 | 28946 ft | 416 kts | 191° |
| 2026-05-01 08:35 | 45.17849 | 5.86765 | 29255 ft | 418 kts | 191° |
| 2026-05-01 08:36 | 45.15003 | 5.85881 | 29558 ft | 419 kts | 191° |
| 2026-05-01 08:36 | 45.12141 | 5.84995 | 29861 ft | 421 kts | 191° |
| 2026-05-01 08:36 | 45.09277 | 5.84110 | 30146 ft | 423 kts | 191° |
| 2026-05-01 08:36 | 45.06387 | 5.83216 | 30435 ft | 424 kts | 191° |
| 2026-05-01 08:37 | 45.03522 | 5.82331 | 30683 ft | 426 kts | 192° |
| 2026-05-01 08:37 | 45.00616 | 5.81437 | 30895 ft | 429 kts | 192° |
| 2026-05-01 08:37 | 44.97673 | 5.80532 | 31117 ft | 431 kts | 192° |
| 2026-05-01 08:37 | 44.94747 | 5.79629 | 31336 ft | 433 kts | 192° |
| 2026-05-01 08:38 | 44.91782 | 5.78714 | 31550 ft | 435 kts | 193° |
| 2026-05-01 08:38 | 44.88831 | 5.77802 | 31770 ft | 437 kts | 193° |
| 2026-05-01 08:38 | 44.85857 | 5.76886 | 31967 ft | 439 kts | 193° |
| 2026-05-01 08:38 | 44.82873 | 5.75970 | 32190 ft | 440 kts | 193° |
| 2026-05-01 08:39 | 44.79875 | 5.75051 | 32431 ft | 441 kts | 194° |
| 2026-05-01 08:39 | 44.76873 | 5.74135 | 32700 ft | 442 kts | 194° |
| 2026-05-01 08:39 | 44.73870 | 5.73224 | 32977 ft | 442 kts | 194° |
| 2026-05-01 08:39 | 44.70915 | 5.72330 | 33248 ft | 442 kts | 194° |
| 2026-05-01 08:40 | 44.64926 | 5.70517 | 33848 ft | 440 kts | 195° |
| 2026-05-01 08:40 | 44.61939 | 5.69610 | 34215 ft | 439 kts | 195° |
| 2026-05-01 08:40 | 44.58946 | 5.68697 | 34489 ft | 438 kts | 195° |
| 2026-05-01 08:41 | 44.55968 | 5.67790 | 34746 ft | 437 kts | 195° |
| 2026-05-01 08:41 | 44.52997 | 5.66885 | 34989 ft | 436 kts | 195° |
| 2026-05-01 08:41 | 44.50023 | 5.65983 | 35204 ft | 436 kts | 195° |
| 2026-05-01 08:41 | 44.47088 | 5.65095 | 35301 ft | 433 kts | 195° |
| 2026-05-01 08:42 | 44.42253 | 5.63639 | 35319 ft | 421 kts | 195° |
| 2026-05-01 08:42 | 44.36639 | 5.61621 | 35321 ft | 414 kts | 205° |
| 2026-05-01 08:43 | 44.31279 | 5.58647 | 35320 ft | 414 kts | 205° |
| 2026-05-01 08:43 | 44.25930 | 5.55712 | 35321 ft | 414 kts | 205° |
| 2026-05-01 08:44 | 44.20553 | 5.52788 | 35319 ft | 415 kts | 204° |
| 2026-05-01 08:44 | 44.15137 | 5.49852 | 35320 ft | 415 kts | 204° |
| 2026-05-01 08:45 | 44.09801 | 5.46948 | 35318 ft | 415 kts | 205° |
| 2026-05-01 08:45 | 44.04437 | 5.44028 | 35314 ft | 416 kts | 205° |
| 2026-05-01 08:46 | 43.98957 | 5.41047 | 35319 ft | 428 kts | 204° |
| 2026-05-01 08:46 | 43.93339 | 5.38002 | 35316 ft | 439 kts | 204° |
| 2026-05-01 08:47 | 43.87581 | 5.34889 | 35315 ft | 449 kts | 204° |
| 2026-05-01 08:47 | 43.81681 | 5.31715 | 35303 ft | 458 kts | 204° |
| 2026-05-01 08:48 | 43.75749 | 5.28521 | 35299 ft | 461 kts | 204° |
| 2026-05-01 08:48 | 43.69775 | 5.25304 | 35296 ft | 462 kts | 204° |
| 2026-05-01 08:49 | 43.63777 | 5.22092 | 35292 ft | 462 kts | 204° |
| 2026-05-01 08:49 | 43.57775 | 5.18881 | 35294 ft | 462 kts | 204° |
| 2026-05-01 08:50 | 43.51777 | 5.15675 | 35297 ft | 462 kts | 204° |
| 2026-05-01 08:50 | 43.45764 | 5.12479 | 35300 ft | 463 kts | 204° |
| 2026-05-01 08:51 | 43.39749 | 5.09248 | 35290 ft | 462 kts | 207° |
| 2026-05-01 08:51 | 43.34382 | 5.04664 | 35296 ft | 457 kts | 217° |
| 2026-05-01 08:52 | 43.29142 | 4.99716 | 35289 ft | 458 kts | 217° |
| 2026-05-01 08:52 | 43.23875 | 4.94773 | 35290 ft | 458 kts | 217° |
| 2026-05-01 08:53 | 43.18681 | 4.89906 | 35298 ft | 458 kts | 217° |
| 2026-05-01 08:53 | 43.13414 | 4.84974 | 35295 ft | 458 kts | 217° |
| 2026-05-01 08:54 | 43.08213 | 4.80121 | 35302 ft | 457 kts | 217° |
| 2026-05-01 08:54 | 43.03220 | 4.74778 | 35303 ft | 454 kts | 224° |
| 2026-05-01 08:55 | 42.98500 | 4.69062 | 35298 ft | 454 kts | 224° |
| 2026-05-01 08:55 | 42.93764 | 4.63356 | 35297 ft | 454 kts | 223° |
| 2026-05-01 08:56 | 42.89013 | 4.57639 | 35301 ft | 454 kts | 224° |
| 2026-05-01 08:56 | 42.84301 | 4.51976 | 35298 ft | 453 kts | 224° |
| 2026-05-01 08:57 | 42.79580 | 4.46312 | 35298 ft | 452 kts | 223° |
| 2026-05-01 08:57 | 42.74867 | 4.40664 | 35301 ft | 452 kts | 224° |
| 2026-05-01 08:58 | 42.70155 | 4.35024 | 35300 ft | 452 kts | 224° |
| 2026-05-01 08:58 | 42.65434 | 4.29385 | 35289 ft | 452 kts | 223° |
| 2026-05-01 08:59 | 42.60686 | 4.23743 | 35289 ft | 452 kts | 223° |
| 2026-05-01 08:59 | 42.55947 | 4.18124 | 35290 ft | 452 kts | 223° |
| 2026-05-01 09:00 | 42.51240 | 4.12541 | 35283 ft | 451 kts | 223° |
| 2026-05-01 09:00 | 42.46504 | 4.06937 | 35288 ft | 451 kts | 223° |
| 2026-05-01 09:01 | 42.41762 | 4.01348 | 35281 ft | 451 kts | 223° |
| 2026-05-01 09:01 | 42.37055 | 3.95812 | 35275 ft | 451 kts | 223° |
| 2026-05-01 09:02 | 42.32318 | 3.90244 | 35269 ft | 450 kts | 223° |
| 2026-05-01 09:02 | 42.27608 | 3.84725 | 35274 ft | 449 kts | 224° |
| 2026-05-01 09:03 | 42.23627 | 3.78295 | 35277 ft | 445 kts | 236° |
| 2026-05-01 09:03 | 42.20038 | 3.71471 | 35271 ft | 445 kts | 236° |
| 2026-05-01 09:04 | 42.16447 | 3.64682 | 35271 ft | 445 kts | 236° |
| 2026-05-01 09:04 | 42.12851 | 3.57882 | 35258 ft | 445 kts | 236° |
| 2026-05-01 09:05 | 42.09240 | 3.51061 | 35268 ft | 445 kts | 236° |
| 2026-05-01 09:05 | 42.05645 | 3.44277 | 35269 ft | 445 kts | 236° |
| 2026-05-01 09:06 | 42.02064 | 3.37543 | 35274 ft | 445 kts | 236° |
| 2026-05-01 09:06 | 41.98448 | 3.30774 | 35276 ft | 445 kts | 235° |
| 2026-05-01 09:07 | 41.94808 | 3.23981 | 35270 ft | 445 kts | 235° |
| 2026-05-01 09:07 | 41.91183 | 3.17233 | 35269 ft | 445 kts | 235° |
| 2026-05-01 09:08 | 41.87584 | 3.10536 | 35273 ft | 444 kts | 235° |
| 2026-05-01 09:08 | 41.83971 | 3.03807 | 35279 ft | 444 kts | 235° |
| 2026-05-01 09:09 | 41.80351 | 2.97089 | 35276 ft | 444 kts | 234° |
| 2026-05-01 09:09 | 41.76727 | 2.90392 | 35272 ft | 443 kts | 234° |
| 2026-05-01 09:10 | 41.73103 | 2.83713 | 35260 ft | 443 kts | 234° |
| 2026-05-01 09:10 | 41.69488 | 2.77070 | 35275 ft | 443 kts | 234° |
| 2026-05-01 09:11 | 41.65798 | 2.70429 | 35264 ft | 443 kts | 233° |
| 2026-05-01 09:11 | 41.62005 | 2.63956 | 35266 ft | 443 kts | 232° |
| 2026-05-01 09:12 | 41.58185 | 2.57503 | 35265 ft | 443 kts | 232° |
| 2026-05-01 09:12 | 41.54389 | 2.51026 | 35266 ft | 442 kts | 232° |
| 2026-05-01 09:13 | 41.50598 | 2.44530 | 35256 ft | 442 kts | 232° |
| 2026-05-01 09:13 | 41.46832 | 2.38105 | 35257 ft | 442 kts | 232° |
| 2026-05-01 09:14 | 41.43035 | 2.31643 | 35260 ft | 442 kts | 232° |
| 2026-05-01 09:14 | 41.39233 | 2.25186 | 35260 ft | 442 kts | 232° |
| 2026-05-01 09:15 | 41.35426 | 2.18736 | 35264 ft | 442 kts | 232° |
| 2026-05-01 09:15 | 41.31649 | 2.12347 | 35257 ft | 442 kts | 232° |
| 2026-05-01 09:16 | 41.27711 | 2.06050 | 35261 ft | 441 kts | 229° |
| 2026-05-01 09:17 | 41.21493 | 1.97050 | 35268 ft | 441 kts | 227° |
| 2026-05-01 09:17 | 41.15286 | 1.88019 | 35263 ft | 441 kts | 228° |
| 2026-05-01 09:18 | 41.09165 | 1.78963 | 35246 ft | 441 kts | 228° |
| 2026-05-01 09:19 | 41.03005 | 1.69902 | 35240 ft | 440 kts | 228° |
| 2026-05-01 09:20 | 40.96871 | 1.60913 | 35240 ft | 440 kts | 228° |
| 2026-05-01 09:21 | 40.88641 | 1.48916 | 35232 ft | 440 kts | 228° |
| 2026-05-01 09:21 | 40.82450 | 1.39917 | 35229 ft | 441 kts | 228° |
| 2026-05-01 09:22 | 40.74207 | 1.27981 | 35230 ft | 441 kts | 227° |
| 2026-05-01 09:23 | 40.68008 | 1.19065 | 35228 ft | 441 kts | 227° |
| 2026-05-01 09:24 | 40.62473 | 1.11079 | 35228 ft | 441 kts | 227° |
| 2026-05-01 09:25 | 40.54175 | 0.99171 | 35219 ft | 442 kts | 227° |
| 2026-05-01 09:26 | 40.47919 | 0.90221 | 35224 ft | 443 kts | 227° |
| 2026-05-01 09:26 | 40.41676 | 0.81329 | 35227 ft | 443 kts | 227° |
| 2026-05-01 09:27 | 40.35400 | 0.72406 | 35230 ft | 443 kts | 227° |
| 2026-05-01 09:28 | 40.31206 | 0.66466 | 35222 ft | 444 kts | 227° |
| 2026-05-01 09:28 | 40.26998 | 0.60514 | 35221 ft | 445 kts | 227° |
| 2026-05-01 09:29 | 40.20670 | 0.51604 | 35223 ft | 445 kts | 227° |
| 2026-05-01 09:30 | 40.14373 | 0.42751 | 35232 ft | 444 kts | 227° |
| 2026-05-01 09:30 | 40.08042 | 0.33872 | 35228 ft | 445 kts | 227° |
| 2026-05-01 09:31 | 40.03835 | 0.27996 | 35215 ft | 445 kts | 227° |
| 2026-05-01 09:32 | 39.97484 | 0.19139 | 35220 ft | 445 kts | 227° |
| 2026-05-01 09:32 | 39.91136 | 0.10287 | 35226 ft | 445 kts | 227° |
| 2026-05-01 09:33 | 39.86901 | 0.04403 | 35227 ft | 445 kts | 227° |
| 2026-05-01 09:34 | 39.80544 | -0.04378 | 35226 ft | 444 kts | 226° |
| 2026-05-01 09:34 | 39.74205 | -0.13151 | 35230 ft | 443 kts | 226° |
| 2026-05-01 09:35 | 39.67895 | -0.21854 | 35233 ft | 442 kts | 226° |
| 2026-05-01 09:36 | 39.63653 | -0.27670 | 35227 ft | 442 kts | 226° |
| 2026-05-01 09:36 | 39.59454 | -0.33425 | 35233 ft | 442 kts | 226° |
| 2026-05-01 09:37 | 39.55231 | -0.39214 | 35232 ft | 441 kts | 226° |
| 2026-05-01 09:37 | 39.48808 | -0.47743 | 35228 ft | 440 kts | 218° |
| 2026-05-01 09:38 | 39.40866 | -0.53656 | 35225 ft | 439 kts | 208° |
| 2026-05-01 09:39 | 39.32811 | -0.59274 | 35216 ft | 440 kts | 209° |
| 2026-05-01 09:39 | 39.27403 | -0.63038 | 35222 ft | 441 kts | 209° |
| 2026-05-01 09:40 | 39.19325 | -0.68639 | 35224 ft | 441 kts | 209° |
| 2026-05-01 09:41 | 39.13920 | -0.72377 | 35225 ft | 441 kts | 209° |
| 2026-05-01 09:41 | 39.05782 | -0.77978 | 35210 ft | 443 kts | 210° |
| 2026-05-01 09:42 | 39.00315 | -0.81729 | 35196 ft | 445 kts | 210° |
| 2026-05-01 09:43 | 38.89376 | -0.89252 | 35192 ft | 448 kts | 210° |
| 2026-05-01 09:43 | 38.83858 | -0.93026 | 35185 ft | 450 kts | 211° |
| 2026-05-01 09:44 | 38.75561 | -0.98693 | 35191 ft | 453 kts | 211° |
| 2026-05-01 09:45 | 38.69989 | -1.02490 | 35194 ft | 454 kts | 211° |
| 2026-05-01 09:45 | 38.61599 | -1.08194 | 35185 ft | 455 kts | 211° |
| 2026-05-01 09:46 | 38.56019 | -1.11972 | 35200 ft | 456 kts | 211° |
| 2026-05-01 09:46 | 38.50390 | -1.15782 | 35197 ft | 457 kts | 212° |
| 2026-05-01 09:47 | 38.44802 | -1.19567 | 35197 ft | 458 kts | 212° |
| 2026-05-01 09:47 | 38.39137 | -1.23384 | 35195 ft | 458 kts | 212° |
| 2026-05-01 09:48 | 38.33533 | -1.27157 | 35200 ft | 459 kts | 212° |
| 2026-05-01 09:48 | 38.27881 | -1.30957 | 35206 ft | 459 kts | 212° |
| 2026-05-01 09:49 | 38.22239 | -1.34750 | 35205 ft | 459 kts | 212° |
| 2026-05-01 09:49 | 38.16583 | -1.38542 | 35177 ft | 459 kts | 211° |
| 2026-05-01 09:50 | 38.10931 | -1.42319 | 35187 ft | 459 kts | 211° |
| 2026-05-01 09:50 | 38.05269 | -1.46104 | 35192 ft | 459 kts | 211° |
| 2026-05-01 09:51 | 37.99621 | -1.49876 | 35194 ft | 458 kts | 211° |
| 2026-05-01 09:51 | 37.93992 | -1.53630 | 35202 ft | 458 kts | 211° |
| 2026-05-01 09:52 | 37.88328 | -1.57373 | 35214 ft | 456 kts | 210° |
| 2026-05-01 09:52 | 37.82719 | -1.61017 | 35217 ft | 456 kts | 210° |
| 2026-05-01 09:53 | 37.77154 | -1.64608 | 35122 ft | 458 kts | 209° |
| 2026-05-01 09:53 | 37.71476 | -1.68282 | 35203 ft | 455 kts | 210° |
| 2026-05-01 09:54 | 37.65855 | -1.71930 | 35200 ft | 454 kts | 210° |
| 2026-05-01 09:54 | 37.60260 | -1.75553 | 35207 ft | 454 kts | 210° |
| 2026-05-01 09:55 | 37.54628 | -1.79185 | 35204 ft | 454 kts | 210° |
| 2026-05-01 09:55 | 37.49004 | -1.82815 | 35202 ft | 454 kts | 210° |
| 2026-05-01 09:56 | 37.43376 | -1.86442 | 35196 ft | 454 kts | 210° |
| 2026-05-01 09:56 | 37.37739 | -1.90058 | 35198 ft | 454 kts | 210° |
| 2026-05-01 09:57 | 37.32098 | -1.93667 | 35197 ft | 454 kts | 210° |
| 2026-05-01 09:57 | 37.26446 | -1.97280 | 35198 ft | 455 kts | 210° |
| 2026-05-01 09:58 | 37.20848 | -2.00891 | 35189 ft | 454 kts | 211° |
| 2026-05-01 09:58 | 37.15267 | -2.04644 | 35201 ft | 454 kts | 212° |
| 2026-05-01 09:59 | 37.09724 | -2.08399 | 35201 ft | 454 kts | 212° |
| 2026-05-01 09:59 | 37.04151 | -2.12128 | 35202 ft | 453 kts | 211° |
| 2026-05-01 10:00 | 36.98570 | -2.15837 | 35199 ft | 453 kts | 212° |
| 2026-05-01 10:00 | 36.92991 | -2.19533 | 35190 ft | 453 kts | 212° |
| 2026-05-01 10:01 | 36.87438 | -2.23209 | 35194 ft | 453 kts | 212° |
| 2026-05-01 10:01 | 36.82031 | -2.27226 | 35194 ft | 447 kts | 223° |
| 2026-05-01 10:02 | 36.77225 | -2.32072 | 35190 ft | 447 kts | 223° |
| 2026-05-01 10:02 | 36.72376 | -2.36948 | 35173 ft | 447 kts | 223° |
| 2026-05-01 10:03 | 36.67524 | -2.41817 | 35182 ft | 447 kts | 224° |
| 2026-05-01 10:03 | 36.62675 | -2.46670 | 35192 ft | 447 kts | 224° |
| 2026-05-01 10:04 | 36.57824 | -2.51517 | 35195 ft | 447 kts | 224° |
| 2026-05-01 10:04 | 36.52970 | -2.56364 | 35199 ft | 447 kts | 224° |
| 2026-05-01 10:05 | 36.48140 | -2.61171 | 35203 ft | 447 kts | 224° |
| 2026-05-01 10:05 | 36.43259 | -2.65968 | 35192 ft | 448 kts | 224° |
| 2026-05-01 10:06 | 36.38315 | -2.70683 | 35188 ft | 448 kts | 224° |
| 2026-05-01 10:06 | 36.34202 | -2.74585 | 35195 ft | 448 kts | 224° |
| 2026-05-01 10:07 | 36.29273 | -2.79285 | 35201 ft | 447 kts | 224° |
| 2026-05-01 10:07 | 36.24346 | -2.83995 | 35202 ft | 447 kts | 224° |
| 2026-05-01 10:08 | 36.16972 | -2.91068 | 35190 ft | 446 kts | 225° |
| 2026-05-01 10:09 | 36.12070 | -2.95834 | 35210 ft | 446 kts | 225° |
| 2026-05-01 10:09 | 36.07190 | -3.00585 | 35202 ft | 446 kts | 225° |
| 2026-05-01 10:10 | 36.02332 | -3.05286 | 35196 ft | 446 kts | 225° |
| 2026-05-01 10:10 | 35.95014 | -3.12345 | 35205 ft | 445 kts | 225° |
| 2026-05-01 10:11 | 35.90122 | -3.17057 | 35206 ft | 445 kts | 225° |
| 2026-05-01 10:11 | 35.85252 | -3.21742 | 35202 ft | 445 kts | 225° |
| 2026-05-01 10:12 | 35.80354 | -3.26420 | 35196 ft | 445 kts | 225° |
| 2026-05-01 10:13 | 35.72953 | -3.33354 | 35190 ft | 445 kts | 224° |
| 2026-05-01 10:13 | 35.68028 | -3.37960 | 35170 ft | 444 kts | 225° |
| 2026-05-01 10:14 | 35.60667 | -3.44881 | 35174 ft | 443 kts | 225° |
| 2026-05-01 10:14 | 35.55796 | -3.49443 | 35186 ft | 442 kts | 225° |
| 2026-05-01 10:15 | 35.50905 | -3.54000 | 35191 ft | 442 kts | 225° |
| 2026-05-01 10:15 | 35.46018 | -3.58559 | 35187 ft | 441 kts | 225° |
| 2026-05-01 10:16 | 35.41129 | -3.63122 | 35172 ft | 441 kts | 225° |
| 2026-05-01 10:17 | 35.33803 | -3.69924 | 35171 ft | 440 kts | 225° |
| 2026-05-01 10:17 | 35.26476 | -3.76712 | 35193 ft | 440 kts | 225° |
| 2026-05-01 10:18 | 35.19145 | -3.83485 | 35196 ft | 440 kts | 225° |
| 2026-05-01 10:19 | 35.14327 | -3.88004 | 35166 ft | 438 kts | 226° |
| 2026-05-01 10:19 | 35.09544 | -3.92591 | 35172 ft | 437 kts | 226° |
| 2026-05-01 10:20 | 35.02380 | -3.99442 | 35174 ft | 436 kts | 226° |
| 2026-05-01 10:20 | 34.97577 | -4.03986 | 35174 ft | 436 kts | 226° |
| 2026-05-01 10:21 | 34.90393 | -4.10781 | 35149 ft | 435 kts | 226° |
| 2026-05-01 10:22 | 34.83221 | -4.17563 | 35155 ft | 435 kts | 226° |
| 2026-05-01 10:23 | 34.76042 | -4.24325 | 35161 ft | 435 kts | 226° |
| 2026-05-01 10:23 | 34.68867 | -4.31074 | 35155 ft | 435 kts | 226° |
| 2026-05-01 10:24 | 34.59281 | -4.40072 | 35153 ft | 435 kts | 225° |
| 2026-05-01 10:25 | 34.49731 | -4.48985 | 35158 ft | 434 kts | 226° |
| 2026-05-01 10:26 | 34.44948 | -4.53454 | 35160 ft | 434 kts | 225° |
| 2026-05-01 10:27 | 34.35379 | -4.62356 | 35149 ft | 433 kts | 225° |
| 2026-05-01 10:28 | 34.28165 | -4.68965 | 35156 ft | 433 kts | 225° |
| 2026-05-01 10:28 | 34.20969 | -4.75561 | 35170 ft | 432 kts | 225° |
| 2026-05-01 10:29 | 34.13785 | -4.82155 | 35179 ft | 432 kts | 225° |
| 2026-05-01 10:30 | 34.04238 | -4.90901 | 35177 ft | 432 kts | 225° |
| 2026-05-01 10:31 | 33.94645 | -4.99634 | 35184 ft | 432 kts | 225° |
| 2026-05-01 10:32 | 33.87374 | -5.06093 | 35186 ft | 433 kts | 223° |
| 2026-05-01 10:33 | 33.77574 | -5.14519 | 35176 ft | 432 kts | 223° |
| 2026-05-01 10:34 | 33.70273 | -5.20827 | 35162 ft | 432 kts | 223° |
| 2026-05-01 10:34 | 33.65388 | -5.25035 | 35171 ft | 432 kts | 223° |
| 2026-05-01 10:35 | 33.58066 | -5.31336 | 35164 ft | 431 kts | 223° |
| 2026-05-01 10:35 | 33.53175 | -5.35552 | 35132 ft | 432 kts | 222° |
| 2026-05-01 10:36 | 33.45830 | -5.41856 | 35138 ft | 433 kts | 222° |
| 2026-05-01 10:37 | 33.40945 | -5.46034 | 35145 ft | 433 kts | 222° |
| 2026-05-01 10:37 | 33.33578 | -5.52325 | 35137 ft | 433 kts | 222° |
| 2026-05-01 10:38 | 33.28695 | -5.56488 | 35138 ft | 433 kts | 222° |
| 2026-05-01 10:38 | 33.23789 | -5.60672 | 35139 ft | 433 kts | 222° |
| 2026-05-01 10:39 | 33.18847 | -5.64875 | 35130 ft | 433 kts | 222° |
| 2026-05-01 10:39 | 33.13962 | -5.69025 | 35132 ft | 433 kts | 221° |
| 2026-05-01 10:40 | 33.09051 | -5.73187 | 35142 ft | 433 kts | 221° |
| 2026-05-01 10:40 | 33.04141 | -5.77340 | 35141 ft | 433 kts | 221° |
| 2026-05-01 10:41 | 32.99222 | -5.81493 | 35098 ft | 433 kts | 221° |
| 2026-05-01 10:42 | 32.91858 | -5.87719 | 35101 ft | 434 kts | 221° |
| 2026-05-01 10:42 | 32.86917 | -5.91881 | 35104 ft | 434 kts | 221° |
| 2026-05-01 10:43 | 32.81965 | -5.96037 | 35107 ft | 435 kts | 221° |
| 2026-05-01 10:43 | 32.77020 | -6.00189 | 35112 ft | 435 kts | 221° |
| 2026-05-01 10:44 | 32.72081 | -6.04345 | 35091 ft | 435 kts | 220° |
| 2026-05-01 10:44 | 32.67160 | -6.08483 | 35100 ft | 436 kts | 220° |
| 2026-05-01 10:45 | 32.62197 | -6.12654 | 35105 ft | 436 kts | 220° |
| 2026-05-01 10:45 | 32.57244 | -6.16802 | 35117 ft | 436 kts | 220° |
| 2026-05-01 10:46 | 32.52311 | -6.20930 | 35124 ft | 436 kts | 220° |
| 2026-05-01 10:46 | 32.47357 | -6.25074 | 35130 ft | 437 kts | 220° |
| 2026-05-01 10:47 | 32.42534 | -6.29420 | 35103 ft | 430 kts | 230° |
| 2026-05-01 10:47 | 32.40696 | -6.32171 | 35108 ft | 424 kts | 242° |
| 2026-05-01 10:47 | 32.39314 | -6.35232 | 35112 ft | 422 kts | 246° |
| 2026-05-01 10:48 | 32.37091 | -6.40376 | 35118 ft | 422 kts | 245° |
| 2026-05-01 10:48 | 32.34403 | -6.46561 | 35120 ft | 423 kts | 245° |
| 2026-05-01 10:49 | 32.31703 | -6.52748 | 35112 ft | 423 kts | 245° |
| 2026-05-01 10:49 | 32.29002 | -6.58907 | 35107 ft | 423 kts | 245° |
| 2026-05-01 10:50 | 32.26288 | -6.65080 | 35110 ft | 423 kts | 245° |
| 2026-05-01 10:50 | 32.23576 | -6.71251 | 35111 ft | 423 kts | 245° |
| 2026-05-01 10:51 | 32.20882 | -6.77383 | 35124 ft | 423 kts | 245° |
| 2026-05-01 10:51 | 32.18154 | -6.83596 | 35119 ft | 423 kts | 245° |
| 2026-05-01 10:52 | 32.15428 | -6.89770 | 35080 ft | 423 kts | 245° |
| 2026-05-01 10:52 | 32.12700 | -6.95935 | 35091 ft | 424 kts | 245° |
| 2026-05-01 10:53 | 32.09990 | -7.02058 | 34870 ft | 423 kts | 245° |
| 2026-05-01 10:53 | 32.08646 | -7.05089 | 34647 ft | 411 kts | 245° |
| 2026-05-01 10:53 | 32.07349 | -7.08007 | 34305 ft | 394 kts | 245° |
| 2026-05-01 10:53 | 32.06093 | -7.10841 | 33599 ft | 385 kts | 245° |
| 2026-05-01 10:54 | 32.04864 | -7.13612 | 32815 ft | 378 kts | 245° |
| 2026-05-01 10:54 | 32.03650 | -7.16347 | 31753 ft | 378 kts | 245° |
| 2026-05-01 10:54 | 32.02433 | -7.19083 | 31020 ft | 372 kts | 245° |
| 2026-05-01 10:54 | 32.01258 | -7.21706 | 30726 ft | 354 kts | 245° |
| 2026-05-01 10:55 | 32.00129 | -7.24224 | 30298 ft | 342 kts | 245° |
| 2026-05-01 10:55 | 31.99041 | -7.26652 | 29852 ft | 329 kts | 245° |
| 2026-05-01 10:55 | 31.97993 | -7.28997 | 29475 ft | 319 kts | 245° |
| 2026-05-01 10:55 | 31.96964 | -7.31309 | 29077 ft | 319 kts | 245° |
| 2026-05-01 10:56 | 31.95932 | -7.33629 | 28700 ft | 318 kts | 245° |
| 2026-05-01 10:56 | 31.94903 | -7.35942 | 28324 ft | 317 kts | 245° |
| 2026-05-01 10:56 | 31.93880 | -7.38230 | 27948 ft | 315 kts | 245° |
| 2026-05-01 10:56 | 31.92861 | -7.40501 | 27575 ft | 314 kts | 245° |
| 2026-05-01 10:57 | 31.91842 | -7.42768 | 27193 ft | 312 kts | 245° |
| 2026-05-01 10:57 | 31.90829 | -7.45027 | 26804 ft | 311 kts | 245° |
| 2026-05-01 10:57 | 31.89820 | -7.47278 | 26424 ft | 309 kts | 245° |
| 2026-05-01 10:57 | 31.88819 | -7.49513 | 26028 ft | 308 kts | 245° |
| 2026-05-01 10:58 | 31.87824 | -7.51733 | 25634 ft | 306 kts | 245° |
| 2026-05-01 10:58 | 31.86829 | -7.53948 | 25244 ft | 305 kts | 245° |
| 2026-05-01 10:58 | 31.85839 | -7.56152 | 24813 ft | 305 kts | 245° |
| 2026-05-01 10:58 | 31.84856 | -7.58335 | 24423 ft | 305 kts | 245° |
| 2026-05-01 10:59 | 31.83864 | -7.60535 | 24006 ft | 304 kts | 245° |
| 2026-05-01 10:59 | 31.82870 | -7.62740 | 23585 ft | 304 kts | 245° |
| 2026-05-01 10:59 | 31.81893 | -7.64937 | 23134 ft | 301 kts | 249° |
| 2026-05-01 10:59 | 31.81220 | -7.67241 | 22737 ft | 296 kts | 259° |
| 2026-05-01 11:00 | 31.80974 | -7.69628 | 22344 ft | 293 kts | 270° |
| 2026-05-01 11:00 | 31.81059 | -7.72011 | 21958 ft | 290 kts | 273° |
| 2026-05-01 11:00 | 31.81159 | -7.74378 | 21591 ft | 289 kts | 272° |
| 2026-05-01 11:00 | 31.81253 | -7.76705 | 21219 ft | 288 kts | 272° |
| 2026-05-01 11:01 | 31.81346 | -7.79051 | 20850 ft | 287 kts | 272° |
| 2026-05-01 11:01 | 31.81439 | -7.81401 | 20477 ft | 287 kts | 272° |
| 2026-05-01 11:01 | 31.81531 | -7.83746 | 20108 ft | 286 kts | 272° |
| 2026-05-01 11:01 | 31.81621 | -7.86092 | 19742 ft | 286 kts | 272° |
| 2026-05-01 11:02 | 31.81710 | -7.88409 | 19379 ft | 286 kts | 272° |
| 2026-05-01 11:02 | 31.81802 | -7.90746 | 19018 ft | 287 kts | 272° |
| 2026-05-01 11:02 | 31.81894 | -7.93094 | 18651 ft | 287 kts | 272° |
| 2026-05-01 11:02 | 31.81983 | -7.95440 | 18276 ft | 288 kts | 272° |
| 2026-05-01 11:03 | 31.82073 | -7.97797 | 17889 ft | 289 kts | 272° |
| 2026-05-01 11:03 | 31.82162 | -8.00162 | 17526 ft | 288 kts | 272° |
| 2026-05-01 11:03 | 31.82251 | -8.02512 | 17174 ft | 288 kts | 272° |
| 2026-05-01 11:03 | 31.82342 | -8.04865 | 16821 ft | 288 kts | 272° |
| 2026-05-01 11:04 | 31.82433 | -8.07213 | 16468 ft | 288 kts | 272° |
| 2026-05-01 11:04 | 31.82523 | -8.09558 | 16124 ft | 288 kts | 272° |
| 2026-05-01 11:04 | 31.82612 | -8.11905 | 15778 ft | 288 kts | 272° |
| 2026-05-01 11:04 | 31.82699 | -8.14263 | 15431 ft | 288 kts | 272° |
| 2026-05-01 11:05 | 31.82785 | -8.16619 | 15085 ft | 289 kts | 272° |
| 2026-05-01 11:05 | 31.82871 | -8.18984 | 14740 ft | 289 kts | 272° |
| 2026-05-01 11:05 | 31.82958 | -8.21348 | 14397 ft | 290 kts | 272° |
| 2026-05-01 11:05 | 31.83045 | -8.23722 | 14048 ft | 291 kts | 271° |
| 2026-05-01 11:06 | 31.83131 | -8.26075 | 13677 ft | 292 kts | 271° |
| 2026-05-01 11:06 | 31.83217 | -8.28457 | 13316 ft | 291 kts | 271° |
| 2026-05-01 11:06 | 31.83303 | -8.30839 | 12960 ft | 290 kts | 271° |
| 2026-05-01 11:07 | 31.83441 | -8.35596 | 12235 ft | 289 kts | 265° |
| 2026-05-01 11:07 | 31.82971 | -8.37876 | 11862 ft | 288 kts | 244° |
| 2026-05-01 11:07 | 31.81852 | -8.39799 | 11473 ft | 288 kts | 225° |
| 2026-05-01 11:07 | 31.80220 | -8.41142 | 11104 ft | 289 kts | 205° |
| 2026-05-01 11:08 | 31.78380 | -8.42086 | 10712 ft | 289 kts | 204° |
| 2026-05-01 11:08 | 31.76552 | -8.43020 | 10334 ft | 290 kts | 204° |
| 2026-05-01 11:08 | 31.72865 | -8.44911 | 9563 ft | 289 kts | 204° |
| 2026-05-01 11:09 | 31.71035 | -8.45853 | 9169 ft | 288 kts | 204° |
| 2026-05-01 11:09 | 31.69212 | -8.46788 | 8814 ft | 285 kts | 204° |
| 2026-05-01 11:09 | 31.67387 | -8.47726 | 8454 ft | 283 kts | 204° |
| 2026-05-01 11:10 | 31.63793 | -8.49332 | 7498 ft | 268 kts | 183° |
| 2026-05-01 11:10 | 31.62047 | -8.48853 | 7161 ft | 257 kts | 147° |
| 2026-05-01 11:10 | 31.60911 | -8.47276 | 6835 ft | 258 kts | 111° |
| 2026-05-01 11:10 | 31.60619 | -8.45212 | 6522 ft | 257 kts | 91° |
| 2026-05-01 11:11 | 31.60716 | -8.43120 | 6113 ft | 259 kts | 85° |
| 2026-05-01 11:11 | 31.60923 | -8.41005 | 5701 ft | 261 kts | 84° |
| 2026-05-01 11:11 | 31.61125 | -8.38898 | 5344 ft | 259 kts | 85° |
| 2026-05-01 11:11 | 31.61286 | -8.36803 | 4989 ft | 256 kts | 86° |
| 2026-05-01 11:12 | 31.61405 | -8.34758 | 4630 ft | 245 kts | 87° |
| 2026-05-01 11:12 | 31.61490 | -8.32826 | 4302 ft | 236 kts | 88° |
| 2026-05-01 11:12 | 31.61555 | -8.30966 | 4154 ft | 221 kts | 88° |
| 2026-05-01 11:12 | 31.61612 | -8.29226 | 4056 ft | 206 kts | 88° |
| 2026-05-01 11:13 | 31.61661 | -8.27618 | 4007 ft | 189 kts | 88° |
| 2026-05-01 11:13 | 31.61705 | -8.26095 | 4001 ft | 183 kts | 88° |
| 2026-05-01 11:13 | 31.61745 | -8.24608 | 3999 ft | 182 kts | 88° |
| 2026-05-01 11:13 | 31.61785 | -8.23135 | 4002 ft | 181 kts | 88° |
| 2026-05-01 11:14 | 31.61824 | -8.21652 | 4005 ft | 182 kts | 88° |
| 2026-05-01 11:14 | 31.61864 | -8.20170 | 4006 ft | 181 kts | 88° |
| 2026-05-01 11:14 | 31.61894 | -8.18695 | 3922 ft | 182 kts | 90° |
| 2026-05-01 11:14 | 31.61841 | -8.17194 | 3562 ft | 182 kts | 94° |
| 2026-05-01 11:15 | 31.61739 | -8.15763 | 3292 ft | 169 kts | 94° |
| 2026-05-01 11:15 | 31.61631 | -8.14450 | 3088 ft | 154 kts | 94° |
| 2026-05-01 11:15 | 31.61527 | -8.13237 | 2874 ft | 143 kts | 95° |
| 2026-05-01 11:15 | 31.61432 | -8.12136 | 2679 ft | 136 kts | 98° |
| 2026-05-01 11:16 | 31.61339 | -8.11051 | 2508 ft | 133 kts | 95° |
| 2026-05-01 11:16 | 31.61246 | -8.09983 | 2348 ft | 133 kts | 94° |
| 2026-05-01 11:16 | 31.61169 | -8.08932 | 2623 ft | 137 kts | 96° |
| 2026-05-01 11:16 | 31.61069 | -8.07760 | 2187 ft | 147 kts | 97° |
| 2026-05-01 11:17 | 31.60950 | -8.06570 | 1859 ft | 146 kts | 96° |
| 2026-05-01 11:17 | 31.60847 | -8.05402 | 1607 ft | 141 kts | 95° |
| 2026-05-01 11:17 | 31.60745 | -8.04301 | 1538 ft | 124 kts | 95° |
| 2026-05-01 11:17 | 31.60676 | -8.03492 | 1542 ft | 75 kts | 95° |
| 2026-05-01 11:18 | 31.60660 | -8.03255 | 2704 ft | 1 kts | 81° |
| 2026-05-01 11:18 | 31.60642 | -8.03143 | 1542 ft | 28 kts | 61° |
| 2026-05-01 11:18 | 31.60657 | -8.03111 | 1540 ft | 0 kts | 61° |
| 2026-05-01 11:18 | 31.60653 | -8.03076 | 1539 ft | 10 kts | 100° |
| 2026-05-01 11:19 | 31.60637 | -8.02966 | 1546 ft | 14 kts | 97° |
| 2026-05-01 11:19 | 31.60625 | -8.02855 | 1545 ft | 13 kts | 97° |
| 2026-05-01 11:19 | 31.60620 | -8.02792 | 2787 ft | 0 kts | 179° |